createdAt,value
2023-01-03T00:04:56.962Z,100.00
2023-01-03T00:09:58.293Z,100.00
2023-01-03T00:14:59.129Z,100.00
2023-01-03T00:20:00.365Z,100.00
2023-01-03T00:25:01.898Z,100.00
2023-01-03T00:30:03.397Z,100.00
2023-01-03T00:35:05.624Z,100.00
2023-01-03T00:40:07.280Z,100.00
2023-01-03T00:45:10.612Z,100.00
2023-01-03T00:50:11.596Z,100.00
2023-01-03T00:55:12.310Z,100.00
2023-01-03T01:00:13.608Z,100.00
2023-01-03T01:05:14.350Z,100.00
2023-01-03T01:10:18.712Z,100.00
2023-01-03T01:15:19.565Z,100.00
2023-01-03T01:20:20.758Z,100.00
2023-01-03T01:25:21.472Z,100.00
2023-01-03T01:30:22.678Z,100.00
2023-01-03T01:35:23.415Z,100.00
2023-01-03T01:40:24.245Z,100.00
2023-01-03T01:45:24.960Z,100.00
2023-01-03T01:50:55.245Z,100.00
2023-01-03T01:56:21.136Z,100.00
2023-01-03T02:01:23.644Z,100.00
2023-01-03T02:06:24.534Z,100.00
2023-01-03T02:12:30.134Z,100.00
2023-01-03T02:19:23.464Z,100.00
2023-01-03T02:24:53.923Z,100.00
2023-01-03T02:30:47.647Z,100.00
2023-01-03T02:36:00.167Z,100.00
2023-01-03T02:41:26.568Z,100.00
2023-01-03T02:46:41.194Z,100.00
2023-01-03T02:51:51.526Z,100.00
2023-01-03T02:57:06.324Z,100.00
2023-01-03T03:02:09.793Z,100.00
2023-01-03T03:07:22.714Z,100.00
2023-01-03T03:12:45.945Z,100.00
2023-01-03T03:17:47.120Z,100.00
2023-01-03T03:23:13.581Z,100.00
2023-01-03T03:28:43.131Z,100.00
2023-01-03T03:34:18.346Z,100.00
2023-01-03T03:39:39.675Z,100.00
2023-01-03T03:45:02.672Z,100.00
2023-01-03T03:50:22.590Z,100.00
2023-01-03T03:55:38.815Z,100.00
2023-01-03T04:00:42.722Z,100.00
2023-01-03T04:05:48.275Z,100.00
2023-01-03T04:10:49.664Z,100.00
2023-01-03T04:15:50.404Z,100.00
2023-01-03T04:20:51.216Z,100.00
2023-01-03T04:25:52.245Z,100.00
2023-01-03T04:30:52.986Z,100.00
2023-01-03T04:35:54.023Z,100.00
2023-01-03T04:40:54.856Z,100.00
2023-01-03T04:45:55.739Z,100.00
2023-01-03T04:50:59.057Z,100.00
2023-01-03T04:55:59.804Z,100.00
2023-01-03T05:01:02.828Z,100.00
2023-01-03T05:06:08.257Z,100.00
2023-01-03T05:11:09.116Z,100.00
2023-01-03T05:16:12.892Z,100.00
2023-01-03T05:21:37.895Z,100.00
2023-01-03T05:26:40.562Z,100.00
2023-01-03T05:31:41.459Z,100.00
2023-01-03T05:36:42.855Z,100.00
2023-01-03T05:42:01.551Z,100.00
2023-01-03T05:47:03.925Z,100.00
2023-01-03T05:52:04.674Z,100.00
2023-01-03T05:57:05.461Z,100.00
2023-01-03T06:02:06.387Z,100.00
2023-01-03T06:07:07.361Z,100.00
2023-01-03T06:12:08.142Z,100.00
2023-01-03T06:17:27.661Z,100.00
2023-01-03T06:22:28.465Z,100.00
2023-01-03T06:27:29.492Z,100.00
2023-01-03T06:32:30.244Z,100.00
2023-01-03T06:37:31.342Z,100.00
2023-01-03T06:42:39.444Z,100.00
2023-01-03T06:47:58.537Z,100.00
2023-01-03T06:53:11.393Z,100.00
2023-01-03T06:58:13.062Z,100.00
2023-01-03T07:03:13.915Z,100.00
2023-01-03T07:08:14.753Z,100.00
2023-01-03T07:13:34.275Z,100.00
2023-01-03T07:18:35.265Z,100.00
2023-01-03T07:23:36.570Z,100.00
2023-01-03T07:28:37.393Z,100.00
2023-01-03T07:33:38.761Z,100.00
2023-01-03T07:38:41.967Z,100.00
2023-01-03T07:43:45.747Z,100.00
2023-01-03T07:48:49.298Z,100.00
2023-01-03T07:53:52.349Z,100.00
2023-01-03T07:58:53.146Z,100.00
2023-01-03T08:03:53.993Z,100.00
2023-01-03T08:09:13.208Z,100.00
2023-01-03T08:14:14.119Z,100.00
2023-01-03T08:19:15.415Z,100.00
2023-01-03T08:24:16.273Z,100.00
2023-01-03T08:29:17.126Z,100.00
2023-01-03T08:34:27.028Z,100.00
2023-01-03T08:39:37.671Z,100.00
2023-01-03T08:44:39.747Z,100.00
2023-01-03T08:49:41.274Z,100.00
2023-01-03T08:54:43.148Z,100.00
2023-01-03T08:59:43.938Z,100.00
2023-01-03T09:04:44.763Z,99.58
2023-01-03T09:09:45.586Z,99.53
2023-01-03T09:14:46.420Z,100.00
2023-01-03T09:19:47.289Z,97.80
2023-01-03T09:24:48.050Z,93.35
2023-01-03T09:29:48.851Z,93.48
2023-01-03T09:34:49.617Z,94.57
2023-01-03T09:39:50.839Z,92.22
2023-01-03T09:44:52.849Z,90.51
2023-01-03T09:50:26.643Z,91.38
2023-01-03T09:56:00.999Z,90.26
2023-01-03T10:01:44.346Z,89.57
2023-01-03T10:07:10.195Z,100.00
2023-01-03T10:13:06.853Z,100.00
2023-01-03T10:20:08.842Z,100.00
2023-01-03T10:25:17.258Z,100.00
2023-01-03T10:30:26.836Z,100.00
2023-01-03T10:35:33.535Z,100.00
2023-01-03T10:40:48.065Z,100.00
2023-01-03T10:45:58.217Z,100.00
2023-01-03T10:50:59.173Z,100.00
2023-01-03T10:56:01.884Z,100.00
2023-01-03T11:01:24.039Z,100.00
2023-01-03T11:06:24.945Z,100.00
2023-01-03T11:11:43.674Z,100.00
2023-01-03T11:16:44.534Z,100.00
2023-01-03T11:22:41.131Z,100.00
2023-01-03T11:28:30.744Z,100.00
2023-01-03T11:40:39.062Z,100.00
2023-01-03T11:49:00.839Z,100.00
2023-01-03T11:54:11.103Z,100.00
2023-01-03T11:59:50.854Z,100.00
2023-01-03T12:07:37.490Z,100.00
2023-01-03T12:15:03.787Z,100.00
2023-01-03T12:20:23.109Z,100.00
2023-01-03T12:25:29.220Z,100.00
2023-01-03T12:30:58.277Z,100.00
2023-01-03T12:36:19.895Z,100.00
2023-01-03T12:41:54.092Z,99.58
2023-01-03T12:46:56.602Z,98.92
2023-01-03T12:51:58.693Z,100.00
2023-01-03T12:59:41.022Z,100.00
2023-01-03T13:04:43.795Z,100.00
2023-01-03T13:10:00.731Z,100.00
2023-01-03T13:15:16.703Z,100.00
2023-01-03T13:20:34.437Z,100.00
2023-01-03T13:25:39.069Z,100.00
2023-01-03T13:30:40.074Z,100.00
2023-01-03T13:36:00.070Z,100.00
2023-01-03T13:41:17.553Z,100.00
2023-01-03T13:46:26.972Z,100.00
2023-01-03T13:57:35.343Z,100.00
2023-01-03T14:03:36.894Z,100.00
2023-01-03T14:12:06.623Z,100.00
2023-01-03T14:17:21.619Z,100.00
2023-01-03T14:22:33.139Z,100.00
2023-01-03T14:27:40.493Z,100.00
2023-01-03T14:32:41.418Z,100.00
2023-01-03T14:37:45.445Z,100.00
2023-01-03T14:42:46.479Z,100.00
2023-01-03T14:47:50.579Z,100.00
2023-01-03T14:52:54.991Z,100.00
2023-01-03T14:57:57.256Z,100.00
2023-01-03T15:02:58.641Z,100.00
2023-01-03T15:08:29.319Z,100.00
2023-01-03T15:13:49.677Z,100.00
2023-01-03T15:18:50.817Z,100.00
2023-01-03T15:23:53.680Z,100.00
2023-01-03T15:29:13.487Z,100.00
2023-01-03T15:34:40.262Z,100.00
2023-01-03T15:40:04.741Z,100.00
2023-01-03T15:45:13.622Z,100.00
2023-01-03T15:50:17.939Z,100.00
2023-01-03T15:55:18.755Z,100.00
2023-01-03T16:00:22.251Z,100.00
2023-01-03T16:05:23.566Z,100.00
2023-01-03T16:10:24.440Z,100.00
2023-01-03T16:15:25.249Z,100.00
2023-01-03T16:20:32.221Z,100.00
2023-01-03T16:25:33.949Z,100.00
2023-01-03T16:30:35.843Z,100.00
2023-01-03T16:35:37.225Z,100.00
2023-01-03T16:40:37.953Z,100.00
2023-01-03T16:45:47.052Z,100.00
2023-01-03T16:50:51.776Z,100.00
2023-01-03T16:55:54.646Z,100.00
2023-01-03T17:00:56.262Z,100.00
2023-01-03T17:05:58.031Z,100.00
2023-01-03T17:10:58.846Z,100.00
2023-01-03T17:16:01.931Z,100.00
2023-01-03T17:21:49.456Z,100.00
2023-01-03T17:27:00.960Z,100.00
2023-01-03T17:32:01.703Z,100.00
2023-01-03T17:37:02.628Z,100.00
2023-01-03T17:42:15.224Z,100.00
2023-01-03T17:47:40.417Z,100.00
2023-01-03T17:52:41.421Z,100.00
2023-01-03T17:57:42.214Z,100.00
2023-01-03T18:02:43.246Z,100.00
2023-01-03T18:07:45.194Z,100.00
2023-01-03T18:12:45.956Z,100.00
2023-01-03T18:17:47.991Z,100.00
2023-01-03T18:22:49.136Z,100.00
2023-01-03T18:28:01.333Z,100.00
2023-01-03T18:33:02.074Z,100.00
2023-01-03T18:38:03.249Z,100.00
2023-01-03T18:43:19.769Z,100.00
2023-01-03T18:48:21.716Z,100.00
2023-01-03T18:53:25.167Z,100.00
2023-01-03T18:58:33.342Z,100.00
2023-01-03T19:03:37.609Z,100.00
2023-01-03T19:08:38.501Z,100.00
2023-01-03T19:13:52.268Z,100.00
2023-01-03T19:18:53.867Z,100.00
2023-01-03T19:24:02.436Z,100.00
2023-01-03T19:29:06.053Z,100.00
2023-01-03T19:34:21.275Z,100.00
2023-01-03T19:39:25.902Z,100.00
2023-01-03T19:44:27.567Z,100.00
2023-01-03T19:49:28.353Z,100.00
2023-01-03T19:54:29.175Z,100.00
2023-01-03T19:59:35.625Z,100.00
2023-01-03T20:04:36.576Z,100.00
2023-01-03T20:09:37.670Z,100.00
2023-01-03T20:14:41.233Z,100.00
2023-01-03T20:19:41.936Z,100.00
2023-01-03T20:24:43.232Z,100.00
2023-01-03T20:29:44.364Z,100.00
2023-01-03T20:34:45.864Z,100.00
2023-01-03T20:39:46.821Z,100.00
2023-01-03T20:44:48.251Z,100.00
2023-01-03T20:49:50.005Z,100.00
2023-01-03T20:54:50.760Z,100.00
2023-01-03T20:59:51.506Z,100.00
2023-01-03T21:04:52.266Z,100.00
2023-01-03T21:09:53.189Z,100.00
2023-01-03T21:14:54.060Z,100.00
2023-01-03T21:19:54.908Z,100.00
2023-01-03T21:24:57.718Z,100.00
2023-01-03T21:29:58.788Z,100.00
2023-01-03T21:34:59.526Z,100.00
2023-01-03T21:40:00.842Z,100.00
2023-01-03T21:45:01.734Z,100.00
2023-01-03T21:50:02.659Z,100.00
2023-01-03T21:55:04.391Z,100.00
2023-01-03T22:00:06.837Z,100.00
2023-01-03T22:05:08.051Z,100.00
2023-01-03T22:10:18.333Z,100.00
2023-01-03T22:15:20.037Z,100.00
2023-01-03T22:20:24.093Z,100.00
2023-01-03T22:25:24.957Z,100.00
2023-01-03T22:30:26.021Z,100.00
2023-01-03T22:35:27.046Z,100.00
2023-01-03T22:40:27.876Z,100.00
2023-01-03T22:45:28.625Z,100.00
2023-01-03T22:50:29.521Z,100.00
2023-01-03T22:55:32.376Z,100.00
2023-01-03T23:00:33.396Z,100.00
2023-01-03T23:05:34.801Z,100.00
2023-01-03T23:10:35.641Z,100.00
2023-01-03T23:15:36.393Z,100.00
2023-01-03T23:20:47.103Z,100.00
2023-01-03T23:25:47.983Z,100.00
2023-01-03T23:30:48.793Z,100.00
2023-01-03T23:35:50.317Z,100.00
2023-01-03T23:40:51.163Z,100.00
2023-01-03T23:45:51.996Z,100.00
2023-01-03T23:50:52.807Z,100.00
2023-01-03T23:55:53.832Z,100.00
